Time;durP1;ratioP1;P1;durP2;ratioP2;P2;SDS_P1;SDS_P2;PMS_P1;PMS_P2;Temp;Humidity;BMP_temperature;BMP_pressure;BME280_temperature;BME280_humidity;BME280_pressure;Samples;Min_cycle;Max_cycle;Signal;HPM_P1;HPM_P2
2022/03/08 00:00:56;;;;;;;;;;;5.40;99.90;;;;;;6128951;23;19921;-88
2022/03/08 00:03:23;;;;;;;;;;;4.60;99.90;;;;;;6130983;23;19921;-88
2022/03/08 00:05:50;;;;;;;;;;;4.30;99.90;;;;;;6130414;23;19968;-88
2022/03/08 00:08:16;;;;;;;;;;;4.60;99.90;;;;;;6130678;23;19921;-90
2022/03/08 00:10:43;;;;;;;;;;;4.80;99.90;;;;;;6130731;23;19960;-89
2022/03/08 00:13:10;;;;;;;;;;;4.40;99.90;;;;;;6129770;23;19924;-89
2022/03/08 00:15:37;;;;;;;;;;;4.80;99.90;;;;;;6129308;23;19928;-90
2022/03/08 00:18:07;;;;;;;;;;;5.30;99.90;;;;;;6129232;23;19928;-89
2022/03/08 00:20:34;;;;;;;;;;;4.50;99.90;;;;;;6128623;23;19929;-88
2022/03/08 00:23:02;;;;;;;;;;;4.40;99.90;;;;;;6128727;23;19920;-89
2022/03/08 00:25:29;;;;;;;;;;;4.30;99.90;;;;;;6128718;23;20356;-89
2022/03/08 00:27:56;;;;;;;;;;;4.20;99.90;;;;;;6128825;23;19973;-89
2022/03/08 00:30:25;;;;;;;;;;;5.00;99.90;;;;;;6128801;23;19925;-88
2022/03/08 00:32:52;;;;;;;;;;;4.40;99.90;;;;;;6128102;23;19979;-89
2022/03/08 00:35:21;;;;;;;;;;;4.40;99.90;;;;;;6129021;23;19925;-88
2022/03/08 00:37:49;;;;;;;;;;;4.10;99.90;;;;;;6128340;23;19924;-87
2022/03/08 00:40:17;;;;;;;;;;;4.40;99.90;;;;;;6128823;23;19921;-89
2022/03/08 00:42:44;;;;;;;;;;;3.00;99.90;;;;;;6128501;23;20019;-89
2022/03/08 00:45:12;;;;;;;;;;;4.00;99.90;;;;;;6128636;23;19927;-88
2022/03/08 00:47:39;;;;;;;;;;;5.10;99.90;;;;;;6128325;23;19921;-88
2022/03/08 00:50:07;;;;;;;;;;;4.30;99.90;;;;;;6128467;23;19920;-88
2022/03/08 00:52:36;;;;;;;;;;;2.40;99.90;;;;;;6127485;23;19921;-89
2022/03/08 00:55:03;;;;;;;;;;;4.90;99.90;;;;;;6127049;23;19928;-89
2022/03/08 00:57:30;;;;;;;;;;;3.90;99.90;;;;;;6127384;23;19943;-89
2022/03/08 00:59:57;;;;;;;;;;;4.40;99.90;;;;;;6128177;23;19921;-89
2022/03/08 01:02:26;;;;;;;;;;;4.70;99.90;;;;;;6128418;23;19924;-89
2022/03/08 01:04:53;;;;;;;;;;;3.50;99.90;;;;;;6128464;23;19920;-90
2022/03/08 01:07:20;;;;;;;;;;;3.60;99.90;;;;;;6127782;23;19924;-89
2022/03/08 01:09:48;;;;;;;;;;;4.20;99.90;;;;;;6128375;23;20248;-89
2022/03/08 01:12:15;;;;;;;;;;;3.60;99.90;;;;;;6128121;23;19920;-89
2022/03/08 01:14:42;;;;;;;;;;;4.00;99.90;;;;;;6127654;23;19920;-90
2022/03/08 01:17:08;;;;;;;;;;;4.40;99.90;;;;;;6128288;23;19925;-88
2022/03/08 01:19:35;;;;;;;;;;;3.50;99.90;;;;;;6129420;23;19921;-89
2022/03/08 01:22:02;;;;;;;;;;;4.50;99.90;;;;;;6130258;23;19921;-90
2022/03/08 01:24:30;;;;;;;;;;;3.70;99.90;;;;;;6129079;23;19928;-90
2022/03/08 01:26:59;;;;;;;;;;;3.40;99.90;;;;;;6129829;23;19921;-89
2022/03/08 01:29:27;;;;;;;;;;;4.10;99.90;;;;;;6129993;23;20344;-88
2022/03/08 01:31:54;;;;;;;;;;;4.10;99.90;;;;;;6130038;23;19921;-89
2022/03/08 01:34:20;;;;;;;;;;;3.10;99.90;;;;;;6131325;23;19925;-87
2022/03/08 01:36:47;;;;;;;;;;;3.90;99.90;;;;;;6130707;23;19921;-86
2022/03/08 01:39:14;;;;;;;;;;;4.60;99.90;;;;;;6130108;23;19921;-88
2022/03/08 01:41:41;;;;;;;;;;;4.50;99.90;;;;;;6129856;23;19921;-89
2022/03/08 01:44:10;;;;;;;;;;;4.70;99.90;;;;;;6130067;23;19983;-88
2022/03/08 01:46:37;;;;;;;;;;;4.20;99.90;;;;;;6129391;23;19921;-89
2022/03/08 01:49:04;;;;;;;;;;;3.00;99.90;;;;;;6130345;23;20233;-89
2022/03/08 01:51:33;;;;;;;;;;;3.80;99.90;;;;;;6129751;23;19929;-90
2022/03/08 01:54:00;;;;;;;;;;;3.60;99.90;;;;;;6130406;23;19928;-88
2022/03/08 01:56:26;;;;;;;;;;;3.30;99.90;;;;;;6129770;23;19925;-88
2022/03/08 01:58:55;;;;;;;;;;;4.70;99.90;;;;;;6129891;23;20333;-88
2022/03/08 02:01:24;;;;;;;;;;;3.60;99.90;;;;;;6129724;23;19920;-90
2022/03/08 02:03:50;;;;;;;;;;;3.90;99.90;;;;;;6130164;23;19924;-88
2022/03/08 02:06:17;;;;;;;;;;;3.70;99.90;;;;;;6130217;23;20225;-89
2022/03/08 02:08:44;;;;;;;;;;;3.40;99.90;;;;;;6129891;23;19944;-89
2022/03/08 02:11:11;;;;;;;;;;;3.60;99.90;;;;;;6130464;23;19925;-89
2022/03/08 02:13:40;;;;;;;;;;;4.20;99.90;;;;;;6129186;23;19921;-88
2022/03/08 02:16:07;;;;;;;;;;;4.10;99.90;;;;;;6130135;23;19927;-88
2022/03/08 02:18:35;;;;;;;;;;;3.50;99.90;;;;;;6130333;23;19928;-88
2022/03/08 02:21:06;;;;;;;;;;;3.80;99.90;;;;;;6129503;23;19921;-88
2022/03/08 02:23:33;;;;;;;;;;;3.50;99.90;;;;;;6129871;23;19928;-89
2022/03/08 02:26:00;;;;;;;;;;;3.50;99.90;;;;;;6129848;23;19920;-89
2022/03/08 02:28:28;;;;;;;;;;;3.20;99.90;;;;;;6130111;23;20218;-89
2022/03/08 02:30:57;;;;;;;;;;;3.80;99.90;;;;;;6129924;23;19921;-89
2022/03/08 02:33:27;;;;;;;;;;;3.20;99.90;;;;;;6129609;23;20337;-89
2022/03/08 02:35:54;;;;;;;;;;;4.00;99.90;;;;;;6129063;23;19976;-88
2022/03/08 02:38:22;;;;;;;;;;;4.40;99.90;;;;;;6129834;23;19928;-87
2022/03/08 02:40:51;;;;;;;;;;;3.00;99.90;;;;;;6128986;23;20268;-88
2022/03/08 02:43:18;;;;;;;;;;;3.80;99.90;;;;;;6117534;23;19928;-88
2022/03/08 02:45:45;;;;;;;;;;;3.90;99.90;;;;;;6129165;23;20022;-88
2022/03/08 02:48:13;;;;;;;;;;;2.80;99.90;;;;;;6129456;23;19928;-89
2022/03/08 02:50:39;;;;;;;;;;;3.70;99.90;;;;;;6129260;23;19924;-88
2022/03/08 02:53:06;;;;;;;;;;;4.70;99.90;;;;;;6128587;23;19921;-88
2022/03/08 02:55:35;;;;;;;;;;;3.80;99.90;;;;;;6128189;23;19921;-88
2022/03/08 02:58:03;;;;;;;;;;;3.50;99.90;;;;;;6129210;23;20266;-88
2022/03/08 03:00:31;;;;;;;;;;;3.50;99.90;;;;;;6129542;23;19925;-88
2022/03/08 03:02:58;;;;;;;;;;;3.40;99.90;;;;;;6129359;23;19921;-88
2022/03/08 03:05:25;;;;;;;;;;;3.70;99.90;;;;;;6129430;23;19924;-88
2022/03/08 03:07:52;;;;;;;;;;;3.50;99.90;;;;;;6129298;23;19925;-89
2022/03/08 03:10:20;;;;;;;;;;;2.50;99.90;;;;;;6129382;23;20388;-89
2022/03/08 03:12:50;;;;;;;;;;;3.30;99.90;;;;;;6129344;23;19960;-89
2022/03/08 03:15:18;;;;;;;;;;;3.70;99.90;;;;;;6129303;23;19921;-88
2022/03/08 03:17:45;;;;;;;;;;;3.40;99.90;;;;;;6129486;23;19960;-89
2022/03/08 03:20:13;;;;;;;;;;;3.20;99.90;;;;;;6130005;23;19925;-89
2022/03/08 03:22:40;;;;;;;;;;;3.70;99.90;;;;;;6128943;23;19929;-89
2022/03/08 03:25:08;;;;;;;;;;;2.00;99.90;;;;;;6128743;23;19973;-89
2022/03/08 03:27:35;;;;;;;;;;;3.00;99.90;;;;;;6128288;23;20399;-88
2022/03/08 03:30:04;;;;;;;;;;;4.10;99.90;;;;;;6128760;23;20336;-88
2022/03/08 03:32:31;;;;;;;;;;;2.80;99.90;;;;;;6127705;23;19972;-88
2022/03/08 03:34:58;;;;;;;;;;;3.30;99.90;;;;;;6127445;23;19976;-88
2022/03/08 03:37:25;;;;;;;;;;;4.00;99.90;;;;;;6127982;23;20000;-89
2022/03/08 03:39:55;;;;;;;;;;;3.50;99.90;;;;;;6128748;23;19931;-88
2022/03/08 03:42:21;;;;;;;;;;;3.20;99.90;;;;;;6128662;23;19927;-89
2022/03/08 03:44:48;;;;;;;;;;;3.10;99.90;;;;;;6129489;23;19951;-89
2022/03/08 03:47:17;;;;;;;;;;;2.90;99.90;;;;;;6128898;23;20395;-89
2022/03/08 03:49:44;;;;;;;;;;;2.90;99.90;;;;;;6129088;23;19921;-89
2022/03/08 03:52:10;;;;;;;;;;;4.20;99.90;;;;;;6128737;23;19952;-90
2022/03/08 03:54:38;;;;;;;;;;;2.90;99.90;;;;;;6128888;23;19920;-89
2022/03/08 03:57:04;;;;;;;;;;;4.10;99.90;;;;;;6129005;23;20415;-90
2022/03/08 03:59:31;;;;;;;;;;;2.80;99.90;;;;;;6128819;23;19921;-88
2022/03/08 04:01:58;;;;;;;;;;;2.70;99.90;;;;;;6128507;23;19928;-88
2022/03/08 04:04:28;;;;;;;;;;;3.70;99.90;;;;;;6128671;23;19925;-88
2022/03/08 04:06:55;;;;;;;;;;;4.00;99.90;;;;;;6128620;23;19943;-88
2022/03/08 04:09:22;;;;;;;;;;;5.10;99.90;;;;;;6128543;23;19921;-88
2022/03/08 04:11:49;;;;;;;;;;;3.30;99.90;;;;;;6128904;23;19925;-88
2022/03/08 04:14:16;;;;;;;;;;;2.70;99.90;;;;;;6128691;23;19999;-89
2022/03/08 04:16:43;;;;;;;;;;;2.30;99.90;;;;;;6128494;23;19921;-89
2022/03/08 04:19:10;;;;;;;;;;;2.80;99.90;;;;;;6129015;23;19925;-88
2022/03/08 04:21:38;;;;;;;;;;;3.40;99.90;;;;;;6129193;23;19925;-89
2022/03/08 04:24:05;;;;;;;;;;;2.70;99.90;;;;;;6128626;23;19927;-88
2022/03/08 04:26:32;;;;;;;;;;;2.70;99.90;;;;;;6128638;23;19979;-89
2022/03/08 04:28:59;;;;;;;;;;;2.70;99.90;;;;;;6128491;23;19928;-88
2022/03/08 04:31:28;;;;;;;;;;;2.60;99.90;;;;;;6128809;23;19924;-88
2022/03/08 04:33:55;;;;;;;;;;;4.40;99.90;;;;;;6128481;23;19928;-88
2022/03/08 04:36:22;;;;;;;;;;;4.00;99.90;;;;;;6128587;23;19928;-88
2022/03/08 04:38:50;;;;;;;;;;;2.60;99.90;;;;;;6127886;23;19921;-89
2022/03/08 04:41:17;;;;;;;;;;;3.80;99.90;;;;;;6127895;23;19921;-88
2022/03/08 04:43:45;;;;;;;;;;;4.30;99.90;;;;;;6128421;23;19945;-89
2022/03/08 04:46:12;;;;;;;;;;;3.30;99.90;;;;;;6129604;23;19940;-88
2022/03/08 04:48:39;;;;;;;;;;;2.80;99.90;;;;;;6128650;23;19980;-88
2022/03/08 04:51:05;;;;;;;;;;;3.90;99.90;;;;;;6127463;23;19930;-88
2022/03/08 04:53:32;;;;;;;;;;;3.10;99.90;;;;;;6131523;23;19932;-87
2022/03/08 04:56:00;;;;;;;;;;;2.80;99.90;;;;;;6132952;23;19928;-88
2022/03/08 04:58:27;;;;;;;;;;;2.80;99.90;;;;;;6129933;23;19921;-88
2022/03/08 05:00:54;;;;;;;;;;;2.70;99.90;;;;;;6130268;23;19921;-88
2022/03/08 05:03:21;;;;;;;;;;;3.20;99.90;;;;;;6130535;23;19931;-88
2022/03/08 05:05:48;;;;;;;;;;;2.50;99.90;;;;;;6129980;23;19921;-89
2022/03/08 05:08:15;;;;;;;;;;;2.80;99.90;;;;;;6129675;23;19992;-89
2022/03/08 05:10:42;;;;;;;;;;;3.40;99.90;;;;;;6130178;23;19929;-89
2022/03/08 05:13:10;;;;;;;;;;;3.10;99.90;;;;;;6130075;23;20333;-90
2022/03/08 05:15:37;;;;;;;;;;;2.80;99.90;;;;;;6130257;23;19921;-88
2022/03/08 05:18:04;;;;;;;;;;;3.70;99.90;;;;;;6129271;23;19928;-89
2022/03/08 05:20:31;;;;;;;;;;;2.50;99.90;;;;;;6129738;23;19925;-89
2022/03/08 05:23:00;;;;;;;;;;;2.50;99.90;;;;;;6130105;23;19984;-88
2022/03/08 05:25:27;;;;;;;;;;;3.20;99.90;;;;;;6129709;23;19968;-88
2022/03/08 05:27:54;;;;;;;;;;;2.90;99.90;;;;;;6129565;23;19932;-89
2022/03/08 05:30:22;;;;;;;;;;;2.60;99.90;;;;;;6128717;23;20336;-89
2022/03/08 05:32:49;;;;;;;;;;;4.30;99.90;;;;;;6107644;23;19943;-89
2022/03/08 05:35:16;;;;;;;;;;;2.50;99.90;;;;;;6087925;23;19929;-89
2022/03/08 05:37:43;;;;;;;;;;;2.40;99.90;;;;;;6100602;23;19925;-90
2022/03/08 05:40:10;;;;;;;;;;;4.10;99.90;;;;;;6100017;23;19929;-89
2022/03/08 05:42:38;;;;;;;;;;;2.40;99.90;;;;;;6099959;23;19969;-88
2022/03/08 05:45:05;;;;;;;;;;;2.50;99.90;;;;;;6100198;23;19928;-89
2022/03/08 05:47:33;;;;;;;;;;;2.80;99.90;;;;;;6099919;23;19925;-89
2022/03/08 05:50:00;;;;;;;;;;;3.40;99.90;;;;;;6100249;23;20329;-89
2022/03/08 05:52:27;;;;;;;;;;;2.90;99.90;;;;;;6099765;23;19921;-89
2022/03/08 05:54:54;;;;;;;;;;;2.60;99.90;;;;;;6101389;23;19921;-89
2022/03/08 05:57:21;;;;;;;;;;;4.10;99.90;;;;;;6100325;23;19969;-90
2022/03/08 05:59:49;;;;;;;;;;;2.70;99.90;;;;;;6100789;23;19921;-89
2022/03/08 06:02:16;;;;;;;;;;;4.20;99.90;;;;;;6100736;23;19928;-89
2022/03/08 06:04:45;;;;;;;;;;;2.30;99.90;;;;;;6100611;23;20329;-89
2022/03/08 06:07:12;;;;;;;;;;;2.10;99.90;;;;;;6101066;23;19932;-88
2022/03/08 06:09:38;;;;;;;;;;;0.80;99.90;;;;;;6100293;23;19922;-89
2022/03/08 06:12:06;;;;;;;;;;;2.30;99.90;;;;;;6100837;23;19992;-89
2022/03/08 06:14:36;;;;;;;;;;;2.80;99.90;;;;;;6100558;23;20012;-88
2022/03/08 06:17:03;;;;;;;;;;;2.00;99.90;;;;;;6100481;23;20385;-88
2022/03/08 06:19:30;;;;;;;;;;;2.30;99.90;;;;;;6100745;23;19921;-87
2022/03/08 06:21:58;;;;;;;;;;;2.10;99.90;;;;;;6100242;23;20345;-88
2022/03/08 06:24:25;;;;;;;;;;;4.00;99.90;;;;;;6100313;23;19921;-89
2022/03/08 06:26:52;;;;;;;;;;;3.30;99.90;;;;;;6100604;23;19981;-88
2022/03/08 06:29:18;;;;;;;;;;;4.60;99.90;;;;;;6100013;23;19925;-88
2022/03/08 06:31:45;;;;;;;;;;;3.90;99.90;;;;;;6099842;23;19977;-90
2022/03/08 06:34:12;;;;;;;;;;;3.40;99.90;;;;;;6099912;23;19925;-90
2022/03/08 06:36:39;;;;;;;;;;;2.30;99.90;;;;;;6100160;23;19976;-88
2022/03/08 06:39:10;;;;;;;;;;;4.30;99.90;;;;;;6099873;23;19921;-88
2022/03/08 06:41:37;;;;;;;;;;;3.60;99.90;;;;;;6100130;23;19921;-89
2022/03/08 06:44:04;;;;;;;;;;;2.80;99.90;;;;;;6100135;23;19977;-89
2022/03/08 06:46:31;;;;;;;;;;;2.30;99.90;;;;;;6100874;23;19929;-87
2022/03/08 06:48:58;;;;;;;;;;;4.40;99.90;;;;;;6100282;23;19921;-86
2022/03/08 06:51:25;;;;;;;;;;;3.00;99.90;;;;;;6100158;23;19922;-87
2022/03/08 06:53:52;;;;;;;;;;;3.60;99.90;;;;;;6099271;23;20067;-88
2022/03/08 06:56:21;;;;;;;;;;;2.60;99.90;;;;;;6100123;23;20359;-89
2022/03/08 06:58:47;;;;;;;;;;;2.70;99.90;;;;;;6099718;23;19929;-89
2022/03/08 07:01:14;;;;;;;;;;;2.60;99.90;;;;;;6101744;23;19925;-87
2022/03/08 07:03:41;;;;;;;;;;;2.90;99.90;;;;;;6099642;23;19935;-89
2022/03/08 07:06:09;;;;;;;;;;;3.50;99.90;;;;;;6099589;23;20344;-89
2022/03/08 07:08:37;;;;;;;;;;;4.10;99.90;;;;;;6099594;23;19921;-87
2022/03/08 07:11:03;;;;;;;;;;;3.50;99.90;;;;;;6099943;23;20311;-88
2022/03/08 07:13:33;;;;;;;;;;;1.80;99.90;;;;;;6099952;23;20268;-89
2022/03/08 07:16:00;;;;;;;;;;;4.20;99.90;;;;;;6099157;23;19921;-88
2022/03/08 07:18:27;;;;;;;;;;;3.80;99.90;;;;;;6099619;23;20259;-88
2022/03/08 07:20:54;;;;;;;;;;;3.10;99.90;;;;;;6100706;23;19925;-86
2022/03/08 07:23:21;;;;;;;;;;;4.40;99.90;;;;;;6101679;23;19941;-88
2022/03/08 07:25:48;;;;;;;;;;;3.30;99.90;;;;;;6099424;23;19921;-87
2022/03/08 07:28:18;;;;;;;;;;;3.20;99.90;;;;;;6098859;23;19954;-88
2022/03/08 07:30:46;;;;;;;;;;;3.40;99.90;;;;;;6099501;23;20012;-89
2022/03/08 07:33:13;;;;;;;;;;;3.30;99.90;;;;;;6098981;23;19969;-87
2022/03/08 07:35:43;;;;;;;;;;;3.20;99.90;;;;;;6100050;23;19928;-87
2022/03/08 07:38:09;;;;;;;;;;;3.50;99.90;;;;;;6099365;23;19925;-88
2022/03/08 07:40:36;;;;;;;;;;;4.50;99.90;;;;;;6099806;23;19928;-88
2022/03/08 07:43:05;;;;;;;;;;;3.30;99.90;;;;;;6099249;23;19958;-88
2022/03/08 07:45:33;;;;;;;;;;;4.90;99.90;;;;;;6100423;23;19932;-87
2022/03/08 07:48:01;;;;;;;;;;;3.70;99.90;;;;;;6099412;23;19921;-88
2022/03/08 07:50:30;;;;;;;;;;;3.40;99.90;;;;;;6101381;23;19925;-87
2022/03/08 07:52:59;;;;;;;;;;;3.70;99.90;;;;;;6099676;23;19985;-88
2022/03/08 07:55:26;;;;;;;;;;;4.00;99.90;;;;;;6100846;23;19921;-86
2022/03/08 07:57:53;;;;;;;;;;;3.80;99.90;;;;;;6098927;23;20312;-87
2022/03/08 08:00:20;;;;;;;;;;;3.70;99.90;;;;;;6098661;23;19921;-88
2022/03/08 08:02:47;;;;;;;;;;;4.50;99.90;;;;;;6098777;23;19921;-87
2022/03/08 08:05:17;;;;;;;;;;;3.80;99.90;;;;;;6099881;23;19966;-88
2022/03/08 08:07:43;;;;;;;;;;;4.30;99.90;;;;;;6101062;23;19969;-86
2022/03/08 08:10:13;;;;;;;;;;;5.70;99.90;;;;;;6101806;23;19922;-88
2022/03/08 08:12:40;;;;;;;;;;;4.10;99.90;;;;;;6099415;23;20236;-87
2022/03/08 08:15:10;;;;;;;;;;;4.50;99.90;;;;;;6100843;23;19927;-88
2022/03/08 08:17:43;;;;;;;;;;;4.10;99.90;;;;;;6099970;23;20261;-89
2022/03/08 08:20:12;;;;;;;;;;;4.10;99.90;;;;;;6100374;23;19929;-86
2022/03/08 08:22:41;;;;;;;;;;;4.30;99.90;;;;;;6100341;23;19977;-87
2022/03/08 08:25:09;;;;;;;;;;;3.10;99.90;;;;;;6101492;23;19962;-87
2022/03/08 08:27:37;;;;;;;;;;;4.60;99.90;;;;;;6102641;23;19929;-87
2022/03/08 08:30:06;;;;;;;;;;;5.40;99.90;;;;;;6102241;23;19925;-89
2022/03/08 08:32:33;;;;;;;;;;;5.10;99.90;;;;;;6102076;23;19985;-87
2022/03/08 08:35:00;;;;;;;;;;;4.70;99.90;;;;;;6099985;23;19921;-89
2022/03/08 08:37:27;;;;;;;;;;;5.00;99.90;;;;;;6103027;23;19922;-88
2022/03/08 08:39:57;;;;;;;;;;;4.30;99.90;;;;;;6100241;23;19941;-88
2022/03/08 08:42:24;;;;;;;;;;;5.20;99.90;;;;;;6100231;23;19932;-83
2022/03/08 08:45:08;;;;;;;;;;;5.20;99.90;;;;;;6096380;23;19989;-90
2022/03/08 08:50:41;;;;;;;;;;;5.20;99.90;;;;;;6063751;23;21053;-87
2022/03/08 08:53:23;;;;;;;;;;;5.90;99.90;;;;;;6058075;23;19921;-87
2022/03/08 08:56:00;;;;;;;;;;;6.50;99.90;;;;;;6055515;23;19925;-90
2022/03/08 08:58:30;;;;;;;;;;;5.50;99.90;;;;;;6077969;23;19961;-89
2022/03/08 09:01:10;;;;;;;;;;;5.60;99.90;;;;;;6080821;23;20013;-87
2022/03/08 09:03:37;;;;;;;;;;;4.70;99.90;;;;;;6056194;23;19952;-87
2022/03/08 09:06:05;;;;;;;;;;;5.40;99.90;;;;;;6079791;23;19957;-87
2022/03/08 09:08:32;;;;;;;;;;;4.70;99.90;;;;;;6099685;23;19986;-85
2022/03/08 09:11:00;;;;;;;;;;;5.70;99.90;;;;;;6096536;23;19930;-85
2022/03/08 09:13:48;;;;;;;;;;;5.70;99.90;;;;;;6097655;23;19921;-86
2022/03/08 09:16:15;;;;;;;;;;;5.70;99.90;;;;;;6088091;23;19929;-87
2022/03/08 09:18:43;;;;;;;;;;;5.10;99.90;;;;;;6093913;23;19984;-87
2022/03/08 09:21:12;;;;;;;;;;;6.00;99.90;;;;;;6094819;23;19925;-87
2022/03/08 09:23:40;;;;;;;;;;;6.00;99.90;;;;;;6097897;23;19925;-86
2022/03/08 09:26:12;;;;;;;;;;;5.90;99.90;;;;;;6095749;23;20000;-86
2022/03/08 09:28:39;;;;;;;;;;;6.20;99.90;;;;;;6096324;23;19962;-87
2022/03/08 09:31:12;;;;;;;;;;;6.20;99.90;;;;;;6079656;23;19928;-89
2022/03/08 09:33:39;;;;;;;;;;;6.30;99.90;;;;;;6050395;23;19976;-85
2022/03/08 09:36:07;;;;;;;;;;;7.10;99.90;;;;;;6069310;23;19993;-85
2022/03/08 09:38:37;;;;;;;;;;;4.20;99.90;;;;;;6072416;23;19953;-90
2022/03/08 09:41:04;;;;;;;;;;;6.20;99.90;;;;;;6069989;23;19941;-85
2022/03/08 09:43:34;;;;;;;;;;;6.80;99.90;;;;;;6070233;23;19922;-87
2022/03/08 09:46:01;;;;;;;;;;;6.30;99.90;;;;;;6070429;23;19928;-86
2022/03/08 09:48:28;;;;;;;;;;;5.00;99.90;;;;;;6070060;23;19925;-86
2022/03/08 09:50:55;;;;;;;;;;;6.70;99.90;;;;;;6072040;23;19982;-85
2022/03/08 09:53:22;;;;;;;;;;;5.70;99.90;;;;;;6070127;23;19925;-89
2022/03/08 09:55:52;;;;;;;;;;;6.70;99.90;;;;;;6070223;23;19932;-88
2022/03/08 09:58:20;;;;;;;;;;;6.80;99.90;;;;;;6069548;23;19921;-86
2022/03/08 10:00:49;;;;;;;;;;;6.50;99.90;;;;;;6071563;23;19932;-89
2022/03/08 10:03:15;;;;;;;;;;;6.70;99.90;;;;;;6069247;23;19929;-86
2022/03/08 10:05:45;;;;;;;;;;;7.00;99.90;;;;;;6070300;23;20615;-88
2022/03/08 10:08:19;;;;;;;;;;;6.70;99.90;;;;;;6070344;23;20026;-86
2022/03/08 10:10:47;;;;;;;;;;;6.80;99.90;;;;;;6068661;23;19955;-89
2022/03/08 10:13:14;;;;;;;;;;;8.00;99.90;;;;;;6069859;23;19969;-88
2022/03/08 10:15:41;;;;;;;;;;;6.90;99.90;;;;;;6068416;23;19929;-87
2022/03/08 10:18:13;;;;;;;;;;;7.00;99.90;;;;;;6070310;23;20345;-88
2022/03/08 10:20:39;;;;;;;;;;;7.40;99.90;;;;;;6071186;23;19977;-88
2022/03/08 10:23:12;;;;;;;;;;;7.20;99.90;;;;;;6071624;23;20309;-88
2022/03/08 10:25:41;;;;;;;;;;;6.90;99.90;;;;;;6069204;23;19921;-84
2022/03/08 10:28:08;;;;;;;;;;;7.30;99.90;;;;;;6068799;23;19922;-85
2022/03/08 10:30:48;;;;;;;;;;;7.60;99.90;;;;;;6069128;23;20301;-89
2022/03/08 10:33:22;;;;;;;;;;;7.40;99.90;;;;;;6072095;23;19926;-91
2022/03/08 10:35:53;;;;;;;;;;;7.50;99.90;;;;;;6072261;23;20099;-89
2022/03/08 10:38:19;;;;;;;;;;;7.90;99.90;;;;;;6061616;23;20017;-86
2022/03/08 10:40:47;;;;;;;;;;;8.00;99.90;;;;;;6068850;23;20004;-88
2022/03/08 10:43:14;;;;;;;;;;;8.00;99.90;;;;;;6068912;23;19925;-88
2022/03/08 10:45:42;;;;;;;;;;;7.90;99.90;;;;;;6068108;23;19970;-87
2022/03/08 10:48:14;;;;;;;;;;;8.00;99.90;;;;;;6070762;23;19945;-91
2022/03/08 10:50:43;;;;;;;;;;;9.30;99.90;;;;;;6066967;23;19922;-87
2022/03/08 10:53:12;;;;;;;;;;;8.10;99.90;;;;;;6074808;23;19925;-90
2022/03/08 10:55:39;;;;;;;;;;;8.60;99.90;;;;;;6070699;23;19922;-88
2022/03/08 10:58:07;;;;;;;;;;;8.20;99.90;;;;;;6068751;23;19921;-87
2022/03/08 11:00:37;;;;;;;;;;;8.70;99.90;;;;;;6068928;23;19925;-90
2022/03/08 11:03:05;;;;;;;;;;;8.60;99.90;;;;;;6071103;23;19982;-86
2022/03/08 11:05:43;;;;;;;;;;;8.30;99.90;;;;;;6069515;23;19928;-88
2022/03/08 11:08:14;;;;;;;;;;;8.30;99.90;;;;;;6070047;23;19961;-87
2022/03/08 11:10:42;;;;;;;;;;;8.40;99.90;;;;;;6068903;23;19928;-88
2022/03/08 11:13:14;;;;;;;;;;;8.70;99.90;;;;;;6066791;23;19921;-87
2022/03/08 11:15:43;;;;;;;;;;;8.50;99.90;;;;;;6072972;23;19921;-91
2022/03/08 11:18:20;;;;;;;;;;;8.80;99.90;;;;;;6074615;23;20338;-86
2022/03/08 11:20:51;;;;;;;;;;;10.30;99.90;;;;;;6077650;23;19946;-89
2022/03/08 11:23:22;;;;;;;;;;;10.70;99.90;;;;;;6070057;23;19922;-88
2022/03/08 11:25:50;;;;;;;;;;;9.90;99.90;;;;;;6070705;23;19921;-89
2022/03/08 11:28:18;;;;;;;;;;;8.60;99.90;;;;;;6069740;23;20389;-89
2022/03/08 11:30:47;;;;;;;;;;;8.70;99.50;;;;;;6068230;23;19928;-88
2022/03/08 11:33:20;;;;;;;;;;;8.80;99.90;;;;;;6096312;23;19932;-90
2022/03/08 11:35:51;;;;;;;;;;;8.70;99.90;;;;;;6097678;23;19932;-85
2022/03/08 11:38:24;;;;;;;;;;;9.70;99.90;;;;;;6102873;23;19927;-89
2022/03/08 11:40:53;;;;;;;;;;;7.50;99.90;;;;;;6101753;23;19992;-88
2022/03/08 11:43:21;;;;;;;;;;;9.00;99.90;;;;;;6101411;23;19968;-89
2022/03/08 11:45:50;;;;;;;;;;;8.70;99.90;;;;;;6100179;23;19936;-86
2022/03/08 11:48:19;;;;;;;;;;;9.50;99.90;;;;;;6100806;23;19965;-87
2022/03/08 11:50:48;;;;;;;;;;;9.90;99.40;;;;;;6100589;23;19936;-89
2022/03/08 11:53:31;;;;;;;;;;;10.30;99.90;;;;;;6099995;23;19929;-90
2022/03/08 11:56:20;;;;;;;;;;;9.60;99.10;;;;;;6099525;23;19921;-86
2022/03/08 11:58:49;;;;;;;;;;;10.70;99.90;;;;;;6101576;23;19928;-87
2022/03/08 12:01:26;;;;;;;;;;;9.90;99.90;;;;;;6096865;23;19925;-87
2022/03/08 12:03:57;;;;;;;;;;;10.10;99.10;;;;;;6097981;23;19969;-87
2022/03/08 12:06:30;;;;;;;;;;;9.70;99.00;;;;;;6079107;23;19932;-87
2022/03/08 12:09:07;;;;;;;;;;;9.70;99.00;;;;;;6123217;23;19921;-88
2022/03/08 12:11:38;;;;;;;;;;;9.70;99.60;;;;;;6117676;23;19929;-88
2022/03/08 12:14:07;;;;;;;;;;;9.80;98.90;;;;;;6128091;23;19944;-88
2022/03/08 12:16:34;;;;;;;;;;;9.80;98.60;;;;;;6119499;23;20286;-88
2022/03/08 12:19:02;;;;;;;;;;;8.70;99.10;;;;;;6128357;23;19921;-87
2022/03/08 12:21:33;;;;;;;;;;;9.80;98.90;;;;;;6128149;23;20333;-87
2022/03/08 12:24:05;;;;;;;;;;;9.80;99.30;;;;;;6130049;23;19927;-89
2022/03/08 12:26:43;;;;;;;;;;;9.90;99.90;;;;;;6127972;23;20264;-90
2022/03/08 12:29:22;;;;;;;;;;;9.90;99.60;;;;;;6130744;23;19925;-91
2022/03/08 12:32:09;;;;;;;;;;;9.90;99.50;;;;;;6129943;23;19924;-86
2022/03/08 12:34:38;;;;;;;;;;;10.20;98.90;;;;;;6126925;23;20258;-87
2022/03/08 12:37:05;;;;;;;;;;;10.20;99.50;;;;;;6130607;23;19924;-87
2022/03/08 12:39:43;;;;;;;;;;;10.80;99.60;;;;;;6126086;23;19992;-89
2022/03/08 12:42:17;;;;;;;;;;;10.40;99.90;;;;;;6129577;23;19931;-91
2022/03/08 12:44:49;;;;;;;;;;;10.60;99.70;;;;;;6127200;23;19928;-88
2022/03/08 12:47:17;;;;;;;;;;;10.70;99.30;;;;;;6127665;23;19924;-88
2022/03/08 12:49:44;;;;;;;;;;;10.40;99.80;;;;;;6125139;23;19976;-87
2022/03/08 12:52:12;;;;;;;;;;;10.50;99.60;;;;;;6124713;23;19928;-88
2022/03/08 12:54:46;;;;;;;;;;;10.50;99.90;;;;;;6099592;23;19932;-86
2022/03/08 12:57:14;;;;;;;;;;;11.00;99.90;;;;;;6099175;23;19928;-90
2022/03/08 12:59:46;;;;;;;;;;;10.60;99.70;;;;;;6108034;23;19921;-88
2022/03/08 13:02:15;;;;;;;;;;;11.30;98.90;;;;;;6087077;23;19921;-88
2022/03/08 13:04:43;;;;;;;;;;;10.70;99.40;;;;;;6127655;23;19968;-89
2022/03/08 13:07:21;;;;;;;;;;;10.50;99.60;;;;;;6131864;23;19925;-88
2022/03/08 13:10:10;;;;;;;;;;;10.70;98.90;;;;;;6139360;23;19932;-87
2022/03/08 13:12:37;;;;;;;;;;;10.70;99.50;;;;;;6133213;23;19925;-87
2022/03/08 13:15:16;;;;;;;;;;;10.80;99.50;;;;;;6132773;23;19921;-86
2022/03/08 13:17:44;;;;;;;;;;;10.60;98.80;;;;;;6134317;23;19925;-87
2022/03/08 13:20:31;;;;;;;;;;;11.30;99.20;;;;;;6135014;23;19921;-90
2022/03/08 13:22:58;;;;;;;;;;;10.70;99.50;;;;;;6133093;23;19968;-88
2022/03/08 13:25:28;;;;;;;;;;;11.10;99.60;;;;;;6131692;23;19925;-89
2022/03/08 13:28:18;;;;;;;;;;;11.10;99.20;;;;;;6134462;23;19921;-86
2022/03/08 13:30:47;;;;;;;;;;;11.10;99.00;;;;;;6134448;23;20536;-89
2022/03/08 13:33:16;;;;;;;;;;;11.00;99.10;;;;;;6105347;23;20020;-88
2022/03/08 13:35:44;;;;;;;;;;;11.10;99.90;;;;;;6130526;23;20384;-89
2022/03/08 13:38:19;;;;;;;;;;;11.20;99.50;;;;;;6130258;23;19921;-91
2022/03/08 13:40:47;;;;;;;;;;;11.50;99.20;;;;;;6133549;23;19925;-88
2022/03/08 13:43:20;;;;;;;;;;;11.10;99.90;;;;;;6111620;23;19928;-86
2022/03/08 13:45:49;;;;;;;;;;;12.10;99.80;;;;;;6097747;23;20419;-88
2022/03/08 13:48:18;;;;;;;;;;;11.40;98.70;;;;;;6105465;23;19924;-88
2022/03/08 13:50:51;;;;;;;;;;;11.60;99.00;;;;;;6136833;23;19921;-87
2022/03/08 13:53:23;;;;;;;;;;;12.00;98.90;;;;;;6136635;23;20065;-91
2022/03/08 13:55:55;;;;;;;;;;;11.40;99.90;;;;;;6126954;23;19933;-90
2022/03/08 13:58:23;;;;;;;;;;;11.80;99.90;;;;;;6106402;23;19959;-85
2022/03/08 14:00:53;;;;;;;;;;;12.20;99.90;;;;;;6108982;23;19980;-91
2022/03/08 14:03:21;;;;;;;;;;;12.00;99.30;;;;;;6126026;23;19925;-89
2022/03/08 14:06:05;;;;;;;;;;;12.00;99.00;;;;;;6142367;23;19924;-91
2022/03/08 14:08:49;;;;;;;;;;;12.60;98.60;;;;;;6137636;23;19921;-93
2022/03/08 14:11:17;;;;;;;;;;;11.70;98.30;;;;;;6131191;23;20230;-87
2022/03/08 14:13:57;;;;;;;;;;;12.40;99.20;;;;;;6133178;23;19948;-87
2022/03/08 14:16:40;;;;;;;;;;;12.30;98.00;;;;;;6134320;23;19976;-90
2022/03/08 14:19:08;;;;;;;;;;;12.80;98.20;;;;;;6130076;23;20268;-89
2022/03/08 14:21:36;;;;;;;;;;;12.60;98.40;;;;;;6131006;23;19929;-85
2022/03/08 14:24:09;;;;;;;;;;;12.30;98.80;;;;;;6128106;23;19960;-89
2022/03/08 14:26:36;;;;;;;;;;;12.20;98.10;;;;;;6128803;23;20011;-89
2022/03/08 14:29:11;;;;;;;;;;;12.30;98.90;;;;;;6130159;23;19921;-90
2022/03/08 14:31:47;;;;;;;;;;;12.30;99.80;;;;;;6132099;23;19925;-86
2022/03/08 14:34:15;;;;;;;;;;;10.70;98.20;;;;;;6135408;23;20007;-88
2022/03/08 14:36:48;;;;;;;;;;;12.00;99.20;;;;;;6108068;23;19921;-89
2022/03/08 14:39:30;;;;;;;;;;;13.70;99.60;;;;;;6127074;23;19951;-87
2022/03/08 14:42:02;;;;;;;;;;;12.00;98.50;;;;;;6126114;23;19976;-87